Time;durP1;ratioP1;P1;durP2;ratioP2;P2;SDS_P1;SDS_P2;PMS_P1;PMS_P2;Temp;Humidity;BMP_temperature;BMP_pressure;BME280_temperature;BME280_humidity;BME280_pressure;Samples;Min_cycle;Max_cycle;Signal;HPM_P1;HPM_P2
2022/03/17 00:01:12;;;;;;;24.07;17.63;;;;;;;;;;5045277;28;20823;-73
2022/03/17 00:03:38;;;;;;;27.20;17.70;;;;;;;;;;5038857;28;20443;-73
2022/03/17 00:06:05;;;;;;;27.97;16.17;;;;;;;;;;5043673;28;20478;-73
2022/03/17 00:08:31;;;;;;;30.30;17.70;;;;;;;;;;5044690;28;20438;-73
2022/03/17 00:10:57;;;;;;;25.23;18.13;;;;;;;;;;5031111;28;20454;-73
2022/03/17 00:13:23;;;;;;;26.07;17.23;;;;;;;;;;5038399;28;20441;-73
2022/03/17 00:15:49;;;;;;;21.93;16.90;;;;;;;;;;5046877;28;20434;-73
2022/03/17 00:18:16;;;;;;;28.23;17.10;;;;;;;;;;5035429;28;20446;-73
2022/03/17 00:20:42;;;;;;;27.10;17.20;;;;;;;;;;5041101;28;21086;-73
2022/03/17 00:23:08;;;;;;;26.57;17.80;;;;;;;;;;5037389;28;20848;-73
2022/03/17 00:25:34;;;;;;;26.83;18.03;;;;;;;;;;5042401;28;20462;-73
2022/03/17 00:28:00;;;;;;;30.70;18.70;;;;;;;;;;5037839;28;20572;-73
2022/03/17 00:30:26;;;;;;;26.17;17.73;;;;;;;;;;5035155;28;20932;-73
2022/03/17 00:32:53;;;;;;;24.13;17.10;;;;;;;;;;5039258;28;20450;-74
2022/03/17 00:38:05;;;;;;;26.10;16.60;;;;;;;;;;5047505;28;20476;-73
2022/03/17 00:40:31;;;;;;;24.67;17.63;;;;;;;;;;5039025;28;20438;-73
2022/03/17 00:42:56;;;;;;;26.50;17.37;;;;;;;;;;5033918;28;20450;-73
2022/03/17 00:45:25;;;;;;;36.80;19.43;;;;;;;;;;5047221;28;20962;-73
2022/03/17 00:47:52;;;;;;;35.10;17.83;;;;;;;;;;5022152;28;20540;-73
2022/03/17 00:50:18;;;;;;;25.57;18.40;;;;;;;;;;5038606;28;20439;-73
2022/03/17 00:52:44;;;;;;;31.07;18.53;;;;;;;;;;5035190;28;20530;-72
2022/03/17 00:55:10;;;;;;;23.80;16.80;;;;;;;;;;5045024;28;20447;-72
2022/03/17 00:57:36;;;;;;;29.57;16.70;;;;;;;;;;5043573;28;20458;-73
2022/03/17 01:00:05;;;;;;;28.23;18.03;;;;;;;;;;5051294;28;20414;-73
2022/03/17 01:02:31;;;;;;;22.43;16.57;;;;;;;;;;5046437;28;20520;-73
2022/03/17 01:04:57;;;;;;;24.50;17.87;;;;;;;;;;5046380;28;20472;-73
2022/03/17 01:07:24;;;;;;;28.53;17.17;;;;;;;;;;5048994;28;20473;-73
2022/03/17 01:09:50;;;;;;;24.33;16.90;;;;;;;;;;5049813;28;20461;-73
2022/03/17 01:12:16;;;;;;;27.23;17.20;;;;;;;;;;5049750;28;20961;-73
2022/03/17 01:14:42;;;;;;;23.80;17.00;;;;;;;;;;5048966;28;20755;-73
2022/03/17 01:17:08;;;;;;;24.10;17.87;;;;;;;;;;5043961;28;20811;-73
2022/03/17 01:19:34;;;;;;;26.27;18.50;;;;;;;;;;5047555;28;20423;-73
2022/03/17 01:22:00;;;;;;;27.13;18.07;;;;;;;;;;5050347;28;20438;-73
2022/03/17 01:24:26;;;;;;;25.33;17.03;;;;;;;;;;5045877;28;20435;-73
2022/03/17 01:26:52;;;;;;;22.20;16.90;;;;;;;;;;5041151;28;20635;-73
2022/03/17 01:29:19;;;;;;;25.30;17.00;;;;;;;;;;5048419;28;20997;-73
2022/03/17 01:31:46;;;;;;;25.63;16.37;;;;;;;;;;5050701;28;20452;-73
2022/03/17 01:34:12;;;;;;;25.07;16.83;;;;;;;;;;5047011;28;20455;-74
2022/03/17 01:36:38;;;;;;;25.97;17.53;;;;;;;;;;5042468;28;20469;-73
2022/03/17 01:39:03;;;;;;;24.83;14.90;;;;;;;;;;5049642;28;20418;-73
2022/03/17 01:41:29;;;;;;;20.13;15.77;;;;;;;;;;5046977;28;20503;-73
2022/03/17 01:43:55;;;;;;;25.47;14.70;;;;;;;;;;5043133;28;20470;-73
2022/03/17 01:46:21;;;;;;;21.87;15.43;;;;;;;;;;5046338;28;20501;-73
2022/03/17 01:48:47;;;;;;;29.07;16.00;;;;;;;;;;5040501;28;20446;-73
2022/03/17 01:51:13;;;;;;;24.10;16.20;;;;;;;;;;5047343;28;20438;-73
2022/03/17 01:53:40;;;;;;;21.80;15.87;;;;;;;;;;5048802;28;20462;-73
2022/03/17 01:56:07;;;;;;;24.40;16.50;;;;;;;;;;5049714;28;20496;-73
2022/03/17 01:58:33;;;;;;;20.23;14.43;;;;;;;;;;5047880;28;20443;-73
2022/03/17 02:00:59;;;;;;;20.67;15.43;;;;;;;;;;5048269;28;20434;-73
2022/03/17 02:03:27;;;;;;;25.53;16.50;;;;;;;;;;5040138;28;20948;-73
2022/03/17 02:05:53;;;;;;;20.57;14.23;;;;;;;;;;5046388;28;20827;-73
2022/03/17 02:08:19;;;;;;;24.33;16.40;;;;;;;;;;5046021;28;20506;-73
2022/03/17 02:13:29;;;;;;;21.90;15.37;;;;;;;;;;5048793;28;20980;-73
2022/03/17 02:15:55;;;;;;;20.30;15.10;;;;;;;;;;5046567;28;20426;-73
2022/03/17 02:18:22;;;;;;;20.80;15.93;;;;;;;;;;5038563;28;20439;-73
2022/03/17 02:20:49;;;;;;;25.57;17.07;;;;;;;;;;5048596;28;20449;-73
2022/03/17 02:26:01;;;;;;;22.50;15.30;;;;;;;;;;5047889;28;20477;-73
2022/03/17 02:28:28;;;;;;;21.83;16.30;;;;;;;;;;5038256;28;20435;-73
2022/03/17 02:30:54;;;;;;;21.77;15.20;;;;;;;;;;5048375;28;20446;-73
2022/03/17 02:33:20;;;;;;;23.73;15.87;;;;;;;;;;5048536;28;20808;-73
2022/03/17 02:35:48;;;;;;;24.13;15.23;;;;;;;;;;5048499;28;20446;-73
2022/03/17 02:38:15;;;;;;;22.33;14.37;;;;;;;;;;5039698;28;20442;-73
2022/03/17 02:40:42;;;;;;;26.27;15.10;;;;;;;;;;5046177;28;20465;-73
2022/03/17 02:43:08;;;;;;;19.90;14.10;;;;;;;;;;5047731;28;20438;-73
2022/03/17 02:45:35;;;;;;;22.83;14.37;;;;;;;;;;5047162;28;20572;-73
2022/03/17 02:48:01;;;;;;;23.17;14.90;;;;;;;;;;5042931;28;20450;-73
2022/03/17 02:50:27;;;;;;;20.90;14.70;;;;;;;;;;5043252;28;20438;-72
2022/03/17 02:52:53;;;;;;;31.70;17.07;;;;;;;;;;5048535;28;20446;-73
2022/03/17 02:55:19;;;;;;;19.60;14.80;;;;;;;;;;5048051;28;20425;-73
2022/03/17 02:57:45;;;;;;;24.60;14.53;;;;;;;;;;5045305;28;20439;-73
2022/03/17 03:00:12;;;;;;;23.90;15.57;;;;;;;;;;5038675;28;20445;-73
2022/03/17 03:02:38;;;;;;;22.10;15.40;;;;;;;;;;5043289;28;20811;-73
2022/03/17 03:05:05;;;;;;;18.30;14.40;;;;;;;;;;5046935;28;20422;-73
2022/03/17 03:07:31;;;;;;;20.37;14.50;;;;;;;;;;5045203;28;20488;-73
2022/03/17 03:09:57;;;;;;;20.10;15.33;;;;;;;;;;5040110;28;20442;-73
2022/03/17 03:12:23;;;;;;;26.50;15.57;;;;;;;;;;5047371;28;20433;-73
2022/03/17 03:14:49;;;;;;;18.83;15.37;;;;;;;;;;5048824;28;20462;-73
2022/03/17 03:17:16;;;;;;;27.00;16.20;;;;;;;;;;5045135;28;20919;-73
2022/03/17 03:19:42;;;;;;;27.47;16.60;;;;;;;;;;5040852;28;20442;-73
2022/03/17 03:22:08;;;;;;;24.00;15.00;;;;;;;;;;5040707;28;20482;-73
2022/03/17 03:24:36;;;;;;;25.50;17.30;;;;;;;;;;5044717;28;20422;-73
2022/03/17 03:27:02;;;;;;;21.33;15.97;;;;;;;;;;5046818;28;20524;-73
2022/03/17 03:29:28;;;;;;;24.40;15.13;;;;;;;;;;5040973;28;20436;-73
2022/03/17 03:31:55;;;;;;;29.70;15.63;;;;;;;;;;5046386;28;21017;-73
2022/03/17 03:34:21;;;;;;;22.27;14.93;;;;;;;;;;5047075;28;20521;-73
2022/03/17 03:39:46;;;;;;;21.80;15.03;;;;;;;;;;5029961;28;20449;-73
2022/03/17 03:42:12;;;;;;;22.23;14.00;;;;;;;;;;5044601;28;20450;-73
2022/03/17 03:44:38;;;;;;;23.30;15.27;;;;;;;;;;5048870;28;20425;-73
2022/03/17 03:47:05;;;;;;;22.47;14.80;;;;;;;;;;5049391;28;20597;-73
2022/03/17 03:49:31;;;;;;;24.23;15.17;;;;;;;;;;5044799;28;20435;-74
2022/03/17 03:51:57;;;;;;;23.00;15.30;;;;;;;;;;5042810;28;20476;-73
2022/03/17 03:54:23;;;;;;;22.17;16.00;;;;;;;;;;5046008;28;20856;-73
2022/03/17 03:56:53;;;;;;;23.10;13.93;;;;;;;;;;5046410;28;20873;-73
2022/03/17 03:59:20;;;;;;;21.50;15.20;;;;;;;;;;5048702;28;20600;-73
2022/03/17 04:01:47;;;;;;;23.20;16.10;;;;;;;;;;5046830;28;20430;-73
2022/03/17 04:04:17;;;;;;;23.13;15.17;;;;;;;;;;5045845;28;20487;-73
2022/03/17 04:06:47;;;;;;;19.03;14.97;;;;;;;;;;5046703;28;21035;-73
2022/03/17 04:09:13;;;;;;;20.93;14.50;;;;;;;;;;5048979;28;20421;-73
2022/03/17 04:11:40;;;;;;;20.40;13.03;;;;;;;;;;5048239;28;20470;-73
2022/03/17 04:14:06;;;;;;;20.37;14.47;;;;;;;;;;5048201;28;20437;-73
2022/03/17 04:16:32;;;;;;;27.53;15.17;;;;;;;;;;5045981;28;21003;-73
2022/03/17 04:18:58;;;;;;;21.80;14.83;;;;;;;;;;5047726;28;20462;-73
2022/03/17 04:21:24;;;;;;;21.60;14.20;;;;;;;;;;5046836;28;20466;-73
2022/03/17 04:23:50;;;;;;;27.73;18.10;;;;;;;;;;5047058;28;20481;-73
2022/03/17 04:26:16;;;;;;;19.47;14.77;;;;;;;;;;5046240;28;20226;-73
2022/03/17 04:28:43;;;;;;;23.33;15.97;;;;;;;;;;5049358;28;20443;-73
2022/03/17 04:31:09;;;;;;;21.40;15.90;;;;;;;;;;5048815;28;20431;-73
2022/03/17 04:33:35;;;;;;;20.90;15.37;;;;;;;;;;5052248;28;20430;-73
2022/03/17 04:36:02;;;;;;;24.83;14.77;;;;;;;;;;5049338;28;20441;-73
2022/03/17 04:38:28;;;;;;;19.47;14.17;;;;;;;;;;5051458;28;20433;-73
2022/03/17 04:40:54;;;;;;;22.03;17.20;;;;;;;;;;5050564;28;20503;-73
2022/03/17 04:43:20;;;;;;;23.20;16.67;;;;;;;;;;5050553;28;20820;-73
2022/03/17 04:45:47;;;;;;;24.17;16.43;;;;;;;;;;5049859;28;20487;-73
2022/03/17 04:48:13;;;;;;;23.70;15.80;;;;;;;;;;5051652;28;20896;-73
2022/03/17 04:50:39;;;;;;;26.23;17.07;;;;;;;;;;5051044;28;20441;-73
2022/03/17 04:55:50;;;;;;;25.43;16.47;;;;;;;;;;5049694;28;20516;-73
2022/03/17 04:58:16;;;;;;;22.50;15.67;;;;;;;;;;5049497;28;20938;-73
2022/03/17 05:00:43;;;;;;;27.40;14.67;;;;;;;;;;5051421;28;20469;-73
2022/03/17 05:03:10;;;;;;;22.07;15.87;;;;;;;;;;5051409;28;20446;-73
2022/03/17 05:05:36;;;;;;;24.93;15.00;;;;;;;;;;5051124;28;20489;-73
2022/03/17 05:08:01;;;;;;;21.67;14.60;;;;;;;;;;5048808;28;20448;-73
2022/03/17 05:10:30;;;;;;;23.80;15.07;;;;;;;;;;5050482;28;20910;-73
2022/03/17 05:12:59;;;;;;;16.83;13.03;;;;;;;;;;5049504;28;20540;-73
2022/03/17 05:15:25;;;;;;;19.90;14.70;;;;;;;;;;5050997;28;20485;-73
2022/03/17 05:17:52;;;;;;;24.00;14.17;;;;;;;;;;5048900;28;20537;-73
2022/03/17 05:20:18;;;;;;;19.57;12.80;;;;;;;;;;5049848;28;20433;-73
2022/03/17 05:22:44;;;;;;;29.13;16.93;;;;;;;;;;5050348;28;20847;-73
2022/03/17 05:25:10;;;;;;;24.17;13.77;;;;;;;;;;5051459;28;20441;-73
2022/03/17 05:27:40;;;;;;;24.20;16.30;;;;;;;;;;5046458;28;20569;-73
2022/03/17 05:30:06;;;;;;;18.63;14.00;;;;;;;;;;5050950;28;20437;-73
2022/03/17 05:32:32;;;;;;;23.40;14.73;;;;;;;;;;5050218;28;20914;-73
2022/03/17 05:34:58;;;;;;;23.23;15.97;;;;;;;;;;5044410;28;20466;-73
2022/03/17 05:37:24;;;;;;;26.20;16.97;;;;;;;;;;5050153;28;20450;-73
2022/03/17 05:39:51;;;;;;;22.63;16.13;;;;;;;;;;5034211;28;20522;-73
2022/03/17 05:42:17;;;;;;;23.93;16.47;;;;;;;;;;5047942;28;20453;-73
2022/03/17 05:44:43;;;;;;;20.57;15.17;;;;;;;;;;5048034;28;20430;-73
2022/03/17 05:47:09;;;;;;;28.20;16.67;;;;;;;;;;5051387;28;20535;-73
2022/03/17 05:49:35;;;;;;;29.63;17.13;;;;;;;;;;5050891;28;20414;-73
2022/03/17 05:52:01;;;;;;;28.07;17.80;;;;;;;;;;5049493;28;20442;-73
2022/03/17 05:54:27;;;;;;;22.80;15.20;;;;;;;;;;5049731;28;20414;-73
2022/03/17 05:56:53;;;;;;;28.10;16.70;;;;;;;;;;5049923;28;20470;-73
2022/03/17 05:59:19;;;;;;;23.20;16.20;;;;;;;;;;5050411;28;20525;-73
2022/03/17 06:01:45;;;;;;;20.10;14.63;;;;;;;;;;5045630;28;20591;-73
2022/03/17 06:04:10;;;;;;;24.13;15.50;;;;;;;;;;5046914;28;20454;-74
2022/03/17 06:06:36;;;;;;;26.27;17.30;;;;;;;;;;5046332;28;20482;-73
2022/03/17 06:09:03;;;;;;;43.67;23.73;;;;;;;;;;5050590;28;20437;-73
2022/03/17 06:11:28;;;;;;;66.10;37.77;;;;;;;;;;5044258;28;20943;-73
2022/03/17 06:13:56;;;;;;;52.77;21.87;;;;;;;;;;5049556;28;20442;-73
2022/03/17 06:16:23;;;;;;;34.20;19.93;;;;;;;;;;5048452;28;20438;-73
2022/03/17 06:18:49;;;;;;;30.70;19.00;;;;;;;;;;5046995;28;20537;-73
2022/03/17 06:21:15;;;;;;;40.27;20.83;;;;;;;;;;5048116;28;20926;-73
2022/03/17 06:23:43;;;;;;;57.37;29.40;;;;;;;;;;5049518;28;20449;-73
2022/03/17 06:26:09;;;;;;;77.53;36.13;;;;;;;;;;5049611;28;20564;-73
2022/03/17 06:28:34;;;;;;;61.10;31.50;;;;;;;;;;5045752;28;20875;-73
2022/03/17 06:31:01;;;;;;;56.20;32.40;;;;;;;;;;5048303;28;21006;-73
2022/03/17 06:33:29;;;;;;;93.67;45.90;;;;;;;;;;5045947;28;20446;-73
2022/03/17 06:35:55;;;;;;;112.43;48.87;;;;;;;;;;5049840;28;20433;-73
2022/03/17 06:38:21;;;;;;;65.50;35.73;;;;;;;;;;5046698;28;20438;-73
2022/03/17 06:40:47;;;;;;;39.77;23.60;;;;;;;;;;5046805;28;20460;-73
2022/03/17 06:43:14;;;;;;;28.33;16.07;;;;;;;;;;5047633;28;20452;-73
2022/03/17 06:45:40;;;;;;;25.23;16.23;;;;;;;;;;5049338;28;20485;-73
2022/03/17 06:48:06;;;;;;;31.80;16.80;;;;;;;;;;5047451;28;20922;-73
2022/03/17 06:50:33;;;;;;;35.60;17.37;;;;;;;;;;5047278;28;20465;-73
2022/03/17 06:52:59;;;;;;;39.87;24.30;;;;;;;;;;5046961;28;20447;-73
2022/03/17 06:55:25;;;;;;;70.33;35.37;;;;;;;;;;5047331;28;20477;-73
2022/03/17 06:57:51;;;;;;;68.63;34.87;;;;;;;;;;5047404;28;20466;-73
2022/03/17 07:00:18;;;;;;;67.87;33.60;;;;;;;;;;5048203;28;20430;-73
2022/03/17 07:02:44;;;;;;;47.60;26.47;;;;;;;;;;5044740;28;20526;-73
2022/03/17 07:05:10;;;;;;;39.90;22.97;;;;;;;;;;5047324;28;20459;-72
2022/03/17 07:07:37;;;;;;;35.43;19.40;;;;;;;;;;5040951;28;20477;-73
2022/03/17 07:10:05;;;;;;;30.93;17.67;;;;;;;;;;5049975;28;20422;-73
2022/03/17 07:12:31;;;;;;;33.30;17.77;;;;;;;;;;5047987;28;20517;-72
2022/03/17 07:14:57;;;;;;;76.40;32.07;;;;;;;;;;5049626;28;21125;-72
2022/03/17 07:17:24;;;;;;;37.03;19.90;;;;;;;;;;5047847;28;20430;-69
2022/03/17 07:22:23;;;;;;;28.30;16.27;;;;;;;;;;5041499;28;20441;-73
2022/03/17 07:24:49;;;;;;;23.60;16.37;;;;;;;;;;5048470;28;20434;-72
2022/03/17 07:27:15;;;;;;;25.90;17.50;;;;;;;;;;5046055;28;20494;-72
2022/03/17 07:29:41;;;;;;;23.27;12.77;;;;;;;;;;5039825;28;20943;-72
2022/03/17 07:32:07;;;;;;;34.63;18.83;;;;;;;;;;5040514;28;20250;-72
2022/03/17 07:34:33;;;;;;;30.53;16.23;;;;;;;;;;5043618;28;20450;-73
2022/03/17 07:36:59;;;;;;;20.17;13.63;;;;;;;;;;5044702;28;20850;-72
2022/03/17 07:39:25;;;;;;;22.33;14.10;;;;;;;;;;5044237;28;20453;-73
2022/03/17 07:41:51;;;;;;;26.23;15.97;;;;;;;;;;5041476;28;20499;-72
2022/03/17 07:44:17;;;;;;;30.30;19.20;;;;;;;;;;5045610;28;20461;-72
2022/03/17 07:46:43;;;;;;;24.27;16.27;;;;;;;;;;5049014;28;20986;-73
2022/03/17 07:49:09;;;;;;;20.07;15.63;;;;;;;;;;5045709;28;20457;-73
2022/03/17 07:51:37;;;;;;;31.80;17.57;;;;;;;;;;5045309;28;20442;-73
2022/03/17 07:54:03;;;;;;;26.60;14.37;;;;;;;;;;5040724;28;20789;-73
2022/03/17 07:56:29;;;;;;;26.90;17.63;;;;;;;;;;5047134;28;20557;-73
2022/03/17 07:58:55;;;;;;;30.50;16.80;;;;;;;;;;5048578;28;20415;-73
2022/03/17 08:01:24;;;;;;;26.57;16.67;;;;;;;;;;5047195;28;20435;-73
2022/03/17 08:03:50;;;;;;;28.93;17.87;;;;;;;;;;5049192;28;20941;-73
2022/03/17 08:06:18;;;;;;;52.77;21.27;;;;;;;;;;5053437;28;20505;-73
2022/03/17 08:08:46;;;;;;;39.47;22.13;;;;;;;;;;5051164;28;20446;-73
2022/03/17 08:11:12;;;;;;;44.10;19.47;;;;;;;;;;5047038;28;20440;-73
2022/03/17 08:13:41;;;;;;;24.23;14.40;;;;;;;;;;5044287;28;20790;-73
2022/03/17 08:16:10;;;;;;;24.27;15.00;;;;;;;;;;5046053;28;20450;-73
2022/03/17 08:18:36;;;;;;;21.97;15.10;;;;;;;;;;5051387;28;20430;-73
2022/03/17 08:21:03;;;;;;;25.70;13.53;;;;;;;;;;5046337;28;20991;-73
2022/03/17 08:23:29;;;;;;;31.47;15.37;;;;;;;;;;5049185;28;20441;-73
2022/03/17 08:25:55;;;;;;;16.90;13.87;;;;;;;;;;5046576;28;20923;-73
2022/03/17 08:28:21;;;;;;;19.20;14.30;;;;;;;;;;5052642;28;20958;-73
2022/03/17 08:30:47;;;;;;;21.57;14.27;;;;;;;;;;5042531;28;20443;-73
2022/03/17 08:33:17;;;;;;;26.60;14.33;;;;;;;;;;5047181;28;20438;-73
2022/03/17 08:35:43;;;;;;;20.60;13.60;;;;;;;;;;5051309;28;20442;-73
2022/03/17 08:38:10;;;;;;;28.17;13.90;;;;;;;;;;5049301;28;20442;-73
2022/03/17 08:40:38;;;;;;;23.77;16.50;;;;;;;;;;5049122;28;20866;-74
2022/03/17 08:43:04;;;;;;;25.77;15.23;;;;;;;;;;5046695;28;20977;-74
2022/03/17 08:51:00;;;;;;;22.90;15.80;;;;;;;;;;5044421;28;20453;-73
2022/03/17 08:53:26;;;;;;;54.20;24.67;;;;;;;;;;5043195;28;20591;-75
2022/03/17 08:55:52;;;;;;;26.60;17.00;;;;;;;;;;5049542;28;20540;-73
2022/03/17 08:58:18;;;;;;;24.17;17.50;;;;;;;;;;5045028;28;20442;-72
2022/03/17 09:00:44;;;;;;;24.57;15.60;;;;;;;;;;5051460;28;20454;-72
2022/03/17 09:03:10;;;;;;;26.73;16.67;;;;;;;;;;5051761;28;20411;-73
2022/03/17 09:05:37;;;;;;;24.17;13.10;;;;;;;;;;5050318;28;20434;-74
2022/03/17 09:08:06;;;;;;;23.77;13.73;;;;;;;;;;5051569;28;20926;-73
2022/03/17 09:10:34;;;;;;;29.37;15.70;;;;;;;;;;5051864;28;20516;-73
2022/03/17 09:13:07;;;;;;;28.20;13.60;;;;;;;;;;5051227;28;20805;-72
2022/03/17 09:15:33;;;;;;;24.50;11.50;;;;;;;;;;5050801;28;20441;-73
2022/03/17 09:17:59;;;;;;;21.23;11.50;;;;;;;;;;5049069;28;20449;-73
2022/03/17 09:20:25;;;;;;;70.00;12.80;;;;;;;;;;5044029;28;20808;-73
2022/03/17 09:22:52;;;;;;;21.20;11.50;;;;;;;;;;5047124;28;20616;-74
2022/03/17 09:25:23;;;;;;;32.37;13.33;;;;;;;;;;5048680;28;20485;-74
2022/03/17 09:27:50;;;;;;;30.50;12.17;;;;;;;;;;5045569;28;20517;-73
2022/03/17 09:30:16;;;;;;;26.03;13.13;;;;;;;;;;5051162;28;20525;-74
2022/03/17 09:32:42;;;;;;;17.67;13.00;;;;;;;;;;5046850;28;20530;-72
2022/03/17 09:35:10;;;;;;;21.17;13.90;;;;;;;;;;5047011;28;20431;-73
2022/03/17 09:37:35;;;;;;;20.67;13.20;;;;;;;;;;5046176;28;20440;-72
2022/03/17 09:40:01;;;;;;;25.83;16.20;;;;;;;;;;5047469;28;20450;-72
2022/03/17 09:42:28;;;;;;;25.80;15.57;;;;;;;;;;5045553;28;20469;-72
2022/03/17 09:44:54;;;;;;;32.07;15.00;;;;;;;;;;5043757;28;20446;-73
2022/03/17 09:47:22;;;;;;;25.10;15.23;;;;;;;;;;5048486;28;20478;-71
2022/03/17 09:49:49;;;;;;;24.33;16.43;;;;;;;;;;5043412;28;20500;-72
2022/03/17 09:52:17;;;;;;;33.73;18.13;;;;;;;;;;5044293;28;20453;-72
2022/03/17 09:54:46;;;;;;;33.60;18.93;;;;;;;;;;5045156;28;20434;-71
2022/03/17 09:57:12;;;;;;;25.97;16.03;;;;;;;;;;5050932;28;20465;-73
2022/03/17 09:59:37;;;;;;;34.07;20.23;;;;;;;;;;5045087;28;20446;-72
2022/03/17 10:02:05;;;;;;;34.83;21.37;;;;;;;;;;5042599;28;21179;-75
2022/03/17 10:04:35;;;;;;;37.00;19.30;;;;;;;;;;5047808;28;20703;-73
2022/03/17 10:07:01;;;;;;;32.53;18.17;;;;;;;;;;5049210;28;20485;-75
2022/03/17 10:09:30;;;;;;;33.13;20.73;;;;;;;;;;5043902;28;20434;-76
2022/03/17 10:12:14;;;;;;;37.27;19.20;;;;;;;;;;5039326;28;20469;-73
2022/03/17 10:14:48;;;;;;;25.37;18.53;;;;;;;;;;5047503;28;20488;-76
2022/03/17 10:17:32;;;;;;;24.23;16.80;;;;;;;;;;5045332;28;20440;-73
2022/03/17 10:20:12;;;;;;;28.07;16.57;;;;;;;;;;5043978;28;20438;-74
2022/03/17 10:22:42;;;;;;;25.87;17.93;;;;;;;;;;5038176;28;20434;-74
2022/03/17 10:25:08;;;;;;;24.60;17.70;;;;;;;;;;5049920;28;20431;-75
2022/03/17 10:27:41;;;;;;;29.13;17.40;;;;;;;;;;5046833;28;20984;-75
2022/03/17 10:30:07;;;;;;;48.37;18.83;;;;;;;;;;5045398;28;20446;-74
2022/03/17 10:32:33;;;;;;;25.83;17.47;;;;;;;;;;5045223;28;20447;-72
2022/03/17 10:34:59;;;;;;;25.13;17.60;;;;;;;;;;5047039;28;20434;-73
2022/03/17 10:37:26;;;;;;;30.10;18.60;;;;;;;;;;5044274;28;20466;-73
2022/03/17 10:39:53;;;;;;;29.77;19.70;;;;;;;;;;5046671;28;20439;-73
2022/03/17 10:42:20;;;;;;;31.30;18.70;;;;;;;;;;5048701;28;20438;-74
2022/03/17 10:44:47;;;;;;;31.70;19.27;;;;;;;;;;5043533;28;20447;-73
2022/03/17 10:47:13;;;;;;;24.93;17.00;;;;;;;;;;5045764;28;20478;-73
2022/03/17 10:49:58;;;;;;;22.93;16.50;;;;;;;;;;5047103;28;20442;-73
2022/03/17 10:52:24;;;;;;;32.60;20.67;;;;;;;;;;5046735;28;20473;-73
2022/03/17 10:54:56;;;;;;;23.07;17.20;;;;;;;;;;5047202;28;20438;-73
2022/03/17 10:57:24;;;;;;;24.53;16.37;;;;;;;;;;5047220;28;20918;-73
2022/03/17 10:59:54;;;;;;;20.87;15.57;;;;;;;;;;5049106;28;20538;-73
2022/03/17 11:02:25;;;;;;;31.07;19.50;;;;;;;;;;5046668;28;20446;-74
2022/03/17 11:04:51;;;;;;;33.67;17.73;;;;;;;;;;5049271;28;20824;-73
2022/03/17 11:07:19;;;;;;;22.67;16.73;;;;;;;;;;5045479;28;21000;-73
2022/03/17 11:09:47;;;;;;;24.37;16.70;;;;;;;;;;5044819;28;20423;-74
2022/03/17 11:12:17;;;;;;;36.03;19.77;;;;;;;;;;5045812;28;20443;-74
2022/03/17 11:14:43;;;;;;;29.77;19.40;;;;;;;;;;5048606;28;20418;-73
2022/03/17 11:17:11;;;;;;;24.80;17.30;;;;;;;;;;5048964;28;20422;-74
2022/03/17 11:19:38;;;;;;;27.53;18.20;;;;;;;;;;5048999;28;20441;-74
2022/03/17 11:22:10;;;;;;;29.93;19.30;;;;;;;;;;5049896;28;20480;-74
2022/03/17 11:24:40;;;;;;;32.47;20.07;;;;;;;;;;5040222;28;20515;-74
2022/03/17 11:27:08;;;;;;;31.63;20.57;;;;;;;;;;5046858;28;20490;-75
2022/03/17 11:29:48;;;;;;;26.77;20.17;;;;;;;;;;5048043;28;20434;-73
2022/03/17 11:32:29;;;;;;;25.67;17.27;;;;;;;;;;5045462;28;20438;-73
2022/03/17 11:35:07;;;;;;;27.43;19.93;;;;;;;;;;5041441;28;20449;-75
2022/03/17 11:37:33;;;;;;;26.23;19.97;;;;;;;;;;5041173;28;20487;-74
2022/03/17 11:40:06;;;;;;;35.30;21.03;;;;;;;;;;5045254;28;20449;-73
2022/03/17 11:42:43;;;;;;;35.80;21.47;;;;;;;;;;5041732;28;20441;-74
2022/03/17 11:45:34;;;;;;;30.50;22.63;;;;;;;;;;5031404;28;20542;-74
2022/03/17 11:48:02;;;;;;;27.57;20.13;;;;;;;;;;5024620;28;20556;-74
2022/03/17 11:50:28;;;;;;;35.07;21.10;;;;;;;;;;5028722;28;20428;-74
2022/03/17 11:52:58;;;;;;;30.60;20.93;;;;;;;;;;5029369;28;20446;-74
2022/03/17 11:55:30;;;;;;;28.53;18.57;;;;;;;;;;5030031;28;20514;-75
2022/03/17 11:58:15;;;;;;;33.13;23.55;;;;;;;;;;5027606;28;20483;-74
2022/03/17 12:00:46;;;;;;;33.10;20.70;;;;;;;;;;5028854;28;20614;-74
2022/03/17 12:03:12;;;;;;;35.20;22.80;;;;;;;;;;5026423;28;20947;-73
2022/03/17 12:05:42;;;;;;;23.87;17.77;;;;;;;;;;5029791;28;20419;-73
2022/03/17 12:08:08;;;;;;;26.60;20.83;;;;;;;;;;5023207;28;20443;-74
2022/03/17 12:10:53;;;;;;;50.53;22.80;;;;;;;;;;5026059;28;20435;-74
2022/03/17 12:13:22;;;;;;;27.13;19.93;;;;;;;;;;5027599;28;20451;-74
2022/03/17 12:15:55;;;;;;;25.67;18.20;;;;;;;;;;5027505;28;20935;-74
2022/03/17 12:18:21;;;;;;;35.00;22.60;;;;;;;;;;5026908;28;20454;-75
2022/03/17 12:20:47;;;;;;;16.73;12.07;;;;;;;;;;5028382;28;20451;-75
2022/03/17 12:23:32;;;;;;;38.40;22.77;;;;;;;;;;5027378;28;20461;-73
2022/03/17 12:26:03;;;;;;;32.73;22.23;;;;;;;;;;5029562;28;20471;-73
2022/03/17 12:28:30;;;;;;;30.00;21.40;;;;;;;;;;5025946;28;20440;-74
2022/03/17 12:30:57;;;;;;;27.60;19.87;;;;;;;;;;5027915;28;20438;-74
2022/03/17 12:33:24;;;;;;;34.87;23.90;;;;;;;;;;5027974;28;20439;-74
2022/03/17 12:36:03;;;;;;;34.23;21.40;;;;;;;;;;5029483;28;20466;-75
2022/03/17 12:38:29;;;;;;;35.97;24.17;;;;;;;;;;5027383;28;20449;-73
2022/03/17 12:40:56;;;;;;;33.17;24.50;;;;;;;;;;5027662;28;20431;-74
2022/03/17 12:43:23;;;;;;;31.03;21.93;;;;;;;;;;5028545;28;20610;-73
2022/03/17 12:45:51;;;;;;;34.27;23.53;;;;;;;;;;5029322;28;20481;-73
2022/03/17 12:48:17;;;;;;;36.77;24.10;;;;;;;;;;5027283;28;20447;-76
2022/03/17 12:50:44;;;;;;;36.23;22.67;;;;;;;;;;5032076;28;20427;-73
2022/03/17 12:53:10;;;;;;;37.20;26.40;;;;;;;;;;5030704;28;20951;-74
2022/03/17 12:55:37;;;;;;;37.50;24.27;;;;;;;;;;5030914;28;20422;-74
2022/03/17 12:58:04;;;;;;;38.50;25.63;;;;;;;;;;5029089;28;20473;-74
2022/03/17 13:00:31;;;;;;;34.93;22.10;;;;;;;;;;5030367;28;20427;-73
2022/03/17 13:02:57;;;;;;;38.13;22.57;;;;;;;;;;5031436;28;20467;-74
2022/03/17 13:08:09;;;;;;;41.23;24.17;;;;;;;;;;5031715;28;20458;-73
2022/03/17 13:16:09;;;;;;;40.20;22.93;;;;;;;;;;5030196;28;20505;-74
2022/03/17 13:18:42;;;;;;;32.53;25.53;;;;;;;;;;5030550;28;20439;-74
2022/03/17 13:21:15;;;;;;;31.87;22.30;;;;;;;;;;5031479;28;20594;-75
2022/03/17 13:23:41;;;;;;;37.10;26.37;;;;;;;;;;5031042;28;20958;-75
2022/03/17 13:26:07;;;;;;;33.67;24.50;;;;;;;;;;5029243;28;20470;-73
2022/03/17 13:28:34;;;;;;;56.13;27.83;;;;;;;;;;5031193;28;20999;-75
2022/03/17 13:31:00;;;;;;;38.50;27.43;;;;;;;;;;5030401;28;20439;-74
2022/03/17 13:33:30;;;;;;;33.27;25.37;;;;;;;;;;5032134;28;21022;-74
2022/03/17 13:35:56;;;;;;;32.73;22.40;;;;;;;;;;5027803;28;20439;-74
2022/03/17 13:38:30;;;;;;;34.93;24.03;;;;;;;;;;5029449;28;20432;-75
2022/03/17 13:40:57;;;;;;;37.10;22.47;;;;;;;;;;5030182;28;20462;-74
2022/03/17 13:43:27;;;;;;;31.83;22.23;;;;;;;;;;5029716;28;20554;-74
2022/03/17 13:45:53;;;;;;;35.00;22.53;;;;;;;;;;5030383;28;20467;-74
2022/03/17 13:48:37;;;;;;;30.77;23.20;;;;;;;;;;5030541;28;20459;-74
2022/03/17 13:51:03;;;;;;;28.40;21.87;;;;;;;;;;5030899;28;20427;-74
2022/03/17 13:53:38;;;;;;;29.77;20.73;;;;;;;;;;5030317;28;20450;-74
2022/03/17 13:56:05;;;;;;;36.20;24.50;;;;;;;;;;5028410;28;20461;-74
2022/03/17 13:58:35;;;;;;;39.17;24.17;;;;;;;;;;5027558;28;20462;-74
2022/03/17 14:01:08;;;;;;;28.73;21.03;;;;;;;;;;5029660;28;20440;-75
2022/03/17 14:03:34;;;;;;;44.50;21.10;;;;;;;;;;5029865;28;20476;-74
2022/03/17 14:06:15;;;;;;;30.03;21.13;;;;;;;;;;5031142;28;20451;-74
2022/03/17 14:08:50;;;;;;;36.47;22.10;;;;;;;;;;5030630;28;20530;-69
2022/03/17 14:11:18;;;;;;;26.00;19.00;;;;;;;;;;5043076;28;20839;-74
2022/03/17 14:13:48;;;;;;;29.77;21.07;;;;;;;;;;5025693;28;20812;-74
2022/03/17 14:16:15;;;;;;;33.00;21.33;;;;;;;;;;5029902;28;20441;-74
2022/03/17 14:18:42;;;;;;;36.53;19.83;;;;;;;;;;5024884;28;20453;-74
2022/03/17 14:21:08;;;;;;;31.07;22.60;;;;;;;;;;5028145;28;20450;-74
2022/03/17 14:26:20;;;;;;;29.77;21.27;;;;;;;;;;5026361;28;20562;-74
2022/03/17 14:28:46;;;;;;;25.87;18.70;;;;;;;;;;5022242;28;20480;-73
2022/03/17 14:31:12;;;;;;;29.87;21.67;;;;;;;;;;5025537;28;20431;-73
2022/03/17 14:33:39;;;;;;;31.45;21.50;;;;;;;;;;5028762;28;20995;-69
2022/03/17 14:36:06;;;;;;;33.80;24.10;;;;;;;;;;5031452;28;20184;-74
2022/03/17 14:38:33;;;;;;;27.43;22.30;;;;;;;;;;5026065;28;20431;-74
2022/03/17 14:40:59;;;;;;;30.20;21.20;;;;;;;;;;5027988;28;20415;-74
2022/03/17 14:43:25;;;;;;;28.17;21.20;;;;;;;;;;5028753;28;20982;-74
2022/03/17 14:45:51;;;;;;;28.97;19.77;;;;;;;;;;5024617;28;20478;-74
2022/03/17 14:48:17;;;;;;;32.23;18.37;;;;;;;;;;5028319;28;20435;-74
2022/03/17 14:50:43;;;;;;;28.27;20.23;;;;;;;;;;5024635;28;20470;-74